Terminal Aerodrome Forecast
Issued by NWS

Home | Current Version | Previous Version | Graphics & Text | Print | Product List | Glossary On
Versions: 1 2 3 4 5 6 7 8 9 10 11 12 13 14 15 16 17
212
FTUS43 KBIS 152220 AAB
TAFJMS
TAF AMD
KJMS 152220Z 1522/1618 34020KT 2SM BLSN SCT010 OVC015
      TEMPO 1522/1523 1SM BLSN OVC008
     FM152300 33018KT 5SM BLSN BKN015
     FM160000 32009KT P6SM SCT020
     FM161000 29006KT P6SM SKC
     FM161600 24008KT P6SM FEW150=

USA.gov is the U.S. government's official web portal to all federal, state and local government web resources and services.